Time;durP1;ratioP1;P1;durP2;ratioP2;P2;SDS_P1;SDS_P2;PMS_P1;PMS_P2;Temp;Humidity;BMP_temperature;BMP_pressure;BME280_temperature;BME280_humidity;BME280_pressure;Samples;Min_cycle;Max_cycle;Signal;HPM_P1;HPM_P2
2021/05/09 00:00:34;;;;;;;4.20;2.15;;;9.30;99.90;;;8.01;61.35;100908.16;4903012;28;21072;-79
2021/05/09 00:02:57;;;;;;;7.10;2.22;;;9.30;99.90;;;8.00;61.39;100916.06;4901546;28;20659;-79
2021/05/09 00:05:20;;;;;;;7.22;2.40;;;9.30;99.90;;;7.97;61.25;100911.78;4903973;28;20078;-79
2021/05/09 00:07:43;;;;;;;3.45;2.30;;;9.30;99.90;;;7.96;61.86;100903.97;4903571;28;20111;-79
2021/05/09 00:10:09;;;;;;;3.03;1.98;;;;;;;7.98;61.54;100896.91;4902086;28;20076;-80
2021/05/09 00:12:33;;;;;;;3.38;2.30;;;9.30;99.90;;;7.94;60.89;100888.28;4905362;28;20489;-81
2021/05/09 00:14:55;;;;;;;5.60;2.10;;;9.30;99.90;;;7.96;61.07;100889.06;4902338;28;20085;-77
2021/05/09 00:17:18;;;;;;;5.00;1.98;;;9.30;99.90;;;7.93;61.33;100886.56;4901606;28;20090;-79
2021/05/09 00:19:41;;;;;;;4.90;2.05;;;9.30;99.90;;;7.94;61.50;100885.66;4891394;28;20119;-78
2021/05/09 00:22:04;;;;;;;3.83;2.28;;;9.30;99.90;;;7.96;61.59;100882.97;4898847;28;20084;-78
2021/05/09 00:24:27;;;;;;;2.70;2.08;;;9.30;99.90;;;7.95;61.13;100881.28;4896582;28;20199;-79
2021/05/09 00:26:50;;;;;;;3.40;2.15;;;9.30;99.90;;;7.95;61.68;100871.66;4898971;28;20095;-79
2021/05/09 00:29:14;;;;;;;4.55;2.30;;;;;;;7.95;62.05;100876.03;4899502;28;20086;-80
2021/05/09 00:31:36;;;;;;;5.90;2.60;;;9.30;99.90;;;7.91;62.92;100875.28;4896893;28;20078;-77
2021/05/09 00:33:59;;;;;;;5.32;2.45;;;9.20;99.90;;;7.86;63.70;100869.34;4897596;28;20088;-81
2021/05/09 00:36:22;;;;;;;6.05;2.35;;;10.70;99.90;;;7.78;64.19;100853.00;4900936;28;20095;-77
2021/05/09 00:38:45;;;;;;;7.32;2.90;;;9.10;99.90;;;7.74;64.33;100861.88;4900619;28;20126;-79
2021/05/09 00:41:08;;;;;;;6.22;2.58;;;9.10;99.90;;;7.72;64.62;100854.03;4900578;28;20165;-80
2021/05/09 00:43:31;;;;;;;4.72;2.30;;;9.10;99.90;;;7.69;65.33;100848.03;4903535;28;20536;-76
2021/05/09 00:45:55;;;;;;;4.05;2.30;;;;;;;7.63;66.18;100843.03;4902823;28;20091;-80
2021/05/09 00:48:19;;;;;;;4.55;2.28;;;8.90;99.90;;;7.58;67.86;100851.00;4899093;28;20088;-79
2021/05/09 00:50:42;;;;;;;4.25;2.25;;;8.90;99.90;;;7.57;66.80;100842.28;4901181;28;20348;-79
2021/05/09 00:53:08;;;;;;;5.20;2.83;;;8.90;99.90;;;7.56;67.71;100845.84;4902957;28;20103;-78
2021/05/09 00:55:33;;;;;;;4.72;2.85;;;8.80;99.90;;;7.50;68.27;100843.41;4899767;28;20092;-80
2021/05/09 00:57:58;;;;;;;4.97;2.50;;;8.80;99.90;;;7.45;68.01;100845.31;4906041;28;20076;-80
2021/05/09 01:00:21;;;;;;;9.10;3.50;;;8.80;99.90;;;7.47;68.42;100837.41;4903338;28;20085;-79
2021/05/09 01:02:46;;;;;;;4.00;2.45;;;8.80;99.90;;;7.44;69.35;100843.59;4905870;28;20138;-80
2021/05/09 01:05:11;;;;;;;4.57;2.80;;;8.70;99.90;;;7.37;70.40;100842.09;4904757;28;20167;-80
2021/05/09 01:07:35;;;;;;;5.85;2.88;;;9.30;99.90;;;7.29;72.80;100844.06;4904567;28;20103;-82
2021/05/09 01:10:00;;;;;;;6.45;3.10;;;8.60;99.90;;;7.24;72.31;100843.38;4901598;28;20101;-79
2021/05/09 01:12:23;;;;;;;8.25;3.70;;;8.60;99.90;;;7.22;72.98;100839.94;4905019;28;20088;-81
2021/05/09 01:14:46;;;;;;;5.63;2.70;;;8.50;99.90;;;7.14;73.62;100835.78;4906648;28;20087;-81
2021/05/09 01:17:10;;;;;;;5.00;3.08;;;8.50;99.90;;;7.18;73.55;100832.16;4906369;28;20413;-81
2021/05/09 01:19:34;;;;;;;4.43;2.63;;;8.50;99.90;;;7.16;74.77;100836.59;4903816;28;20097;-81
2021/05/09 01:21:58;;;;;;;7.10;3.50;;;8.50;99.90;;;7.13;74.82;100833.22;4906324;28;20462;-81
2021/05/09 01:24:21;;;;;;;7.85;3.80;;;8.40;99.90;;;7.08;75.68;100838.56;4899515;28;20077;-80
2021/05/09 01:26:44;;;;;;;7.15;3.60;;;8.40;99.90;;;7.00;76.39;100827.50;4904638;28;20082;-81
2021/05/09 01:29:07;;;;;;;4.93;3.05;;;8.40;99.90;;;6.98;76.60;100827.53;4908658;28;20089;-82
2021/05/09 01:31:30;;;;;;;10.60;3.95;;;8.40;99.90;;;7.03;76.57;100827.41;4908120;28;20085;-81
2021/05/09 01:33:52;;;;;;;7.00;3.60;;;8.40;99.90;;;7.01;77.10;100821.34;4910294;28;20111;-82
2021/05/09 01:36:15;;;;;;;8.48;3.97;;;8.40;99.90;;;6.97;77.04;100825.81;4909282;28;20092;-82
2021/05/09 01:38:39;;;;;;;5.97;3.40;;;8.30;99.90;;;6.97;77.60;100820.56;4904545;28;20103;-81
2021/05/09 01:41:02;;;;;;;7.13;3.45;;;8.30;99.90;;;6.98;77.89;100821.47;4908317;28;20113;-77
2021/05/09 01:43:25;;;;;;;7.10;3.90;;;;;;;6.94;77.81;100823.31;4909306;28;20088;-80
2021/05/09 01:45:48;;;;;;;6.95;3.70;;;8.30;99.90;;;6.96;76.94;100812.78;4908084;28;20095;-81
2021/05/09 01:48:11;;;;;;;8.07;3.80;;;8.40;99.90;;;6.98;76.97;100809.22;4905917;28;20134;-80
2021/05/09 01:50:34;;;;;;;6.18;3.80;;;8.30;99.90;;;6.98;78.24;100808.38;4903427;28;20097;-81
2021/05/09 01:52:58;;;;;;;7.00;3.85;;;8.30;99.90;;;6.94;78.85;100806.75;4907523;28;20095;-80
2021/05/09 01:55:24;;;;;;;7.82;4.35;;;8.30;99.90;;;6.89;79.44;100811.25;4908573;28;20178;-83
2021/05/09 01:57:47;;;;;;;9.20;4.00;;;8.30;99.90;;;6.90;80.60;100813.81;4906598;28;20084;-81
2021/05/09 02:00:13;;;;;;;6.70;4.00;;;8.20;99.90;;;6.82;81.77;100815.81;4906727;28;20412;-81
2021/05/09 02:02:36;;;;;;;;;;;8.20;99.90;;;6.68;82.44;100820.59;4910393;28;20075;-82
2021/05/09 02:04:58;;;;;;;6.90;3.90;;;8.10;99.90;;;6.78;82.27;100804.59;4908331;28;20340;-82
2021/05/09 02:07:22;;;;;;;7.85;4.15;;;;;;;6.71;83.33;100808.25;4903663;28;20081;-81
2021/05/09 02:09:44;;;;;;;9.07;4.70;;;8.00;99.90;;;6.59;85.25;100811.25;4907222;28;20097;-82
2021/05/09 02:12:09;;;;;;;9.15;4.47;;;7.90;99.90;;;6.54;84.79;100807.91;4899783;28;20084;-82
2021/05/09 02:14:32;;;;;;;8.07;4.53;;;7.90;99.90;;;6.53;84.50;100814.03;4905412;28;20460;-83
2021/05/09 02:16:54;;;;;;;7.60;4.35;;;7.90;99.90;;;6.56;84.22;100801.72;4900703;28;20084;-81
2021/05/09 02:19:17;;;;;;;8.13;4.95;;;8.00;99.90;;;6.54;84.86;100785.22;4903624;28;20084;-83
2021/05/09 02:21:40;;;;;;;10.65;4.85;;;8.00;99.90;;;6.57;84.35;100784.28;4903346;28;20091;-83
2021/05/09 02:24:05;;;;;;;8.60;4.78;;;7.90;99.90;;;6.51;86.01;100787.91;4894935;28;20116;-79
2021/05/09 02:26:28;;;;;;;8.13;4.82;;;7.80;99.90;;;6.48;86.51;100788.03;4915190;28;20447;-82
2021/05/09 02:28:53;;;;;;;12.85;5.47;;;7.90;99.90;;;6.45;86.72;100787.25;4908179;28;20096;-80
2021/05/09 02:31:16;;;;;;;11.68;5.68;;;7.90;99.90;;;6.43;86.96;100774.19;4901058;28;20096;-81
2021/05/09 02:33:39;;;;;;;8.00;4.97;;;7.80;99.90;;;6.47;86.71;100775.81;4902459;28;20494;-82
2021/05/09 02:36:02;;;;;;;9.27;4.82;;;7.90;99.90;;;6.51;86.17;100777.47;4894641;28;20111;-83
2021/05/09 02:38:25;;;;;;;9.70;5.13;;;7.90;99.90;;;6.50;86.42;100759.19;4906585;28;20092;-80
2021/05/09 02:40:48;;;;;;;8.77;4.68;;;7.90;99.90;;;6.50;86.14;100767.03;4902098;28;20080;-80
2021/05/09 02:43:16;;;;;;;12.75;5.30;;;7.90;99.90;;;6.52;86.44;100746.91;4907146;28;20097;-82
2021/05/09 02:45:40;;;;;;;8.98;4.72;;;7.90;99.90;;;6.50;87.79;100738.25;4898103;28;20107;-82
2021/05/09 02:48:03;;;;;;;9.23;5.47;;;7.90;99.90;;;6.55;86.99;100736.38;4906476;28;20439;-82
2021/05/09 02:50:26;;;;;;;8.90;5.07;;;7.90;99.90;;;6.51;86.66;100726.91;4905285;28;20103;-81
2021/05/09 02:52:48;;;;;;;10.15;5.55;;;7.90;99.90;;;6.50;87.17;100726.06;4893666;28;20088;-82
2021/05/09 02:55:13;;;;;;;11.07;5.95;;;7.90;99.90;;;6.51;86.94;100735.59;4906457;28;20100;-80
2021/05/09 02:57:36;;;;;;;9.57;5.30;;;7.90;99.90;;;6.57;86.83;100729.34;4903362;28;20451;-82
2021/05/09 03:00:03;;;;;;;11.85;5.68;;;8.00;99.90;;;6.65;86.44;100729.09;4901804;28;20440;-83
2021/05/09 03:02:27;;;;;;;13.68;5.82;;;;;;;6.65;86.74;100729.97;4903127;28;20985;-81
2021/05/09 03:04:50;;;;;;;9.10;5.53;;;8.00;99.90;;;6.61;87.04;100723.13;4902683;28;20089;-80
2021/05/09 03:07:13;;;;;;;9.10;5.60;;;8.00;99.90;;;6.59;87.35;100719.69;4906182;28;20095;-82
2021/05/09 03:09:36;;;;;;;8.98;5.28;;;8.00;99.90;;;6.60;88.09;100723.16;4905398;28;20088;-83
2021/05/09 03:11:59;;;;;;;10.43;5.60;;;8.00;99.90;;;6.61;87.30;100723.13;4904996;28;20472;-82
2021/05/09 03:14:22;;;;;;;10.32;5.88;;;8.00;99.90;;;6.62;87.01;100730.06;4905031;28;20081;-83
2021/05/09 03:16:45;;;;;;;20.05;6.05;;;8.00;99.90;;;6.62;87.02;100729.19;4899369;28;20450;-83
2021/05/09 03:19:09;;;;;;;8.30;6.05;;;7.90;99.90;;;6.52;87.17;100736.44;4901321;28;20084;-81
2021/05/09 03:21:32;;;;;;;10.80;6.00;;;7.90;99.90;;;6.54;88.10;100735.53;4900409;28;20079;-82
2021/05/09 03:23:54;;;;;;;9.05;5.38;;;7.90;99.90;;;6.50;88.42;100726.06;4898186;28;20091;-80
2021/05/09 03:26:17;;;;;;;10.70;6.00;;;7.90;99.90;;;6.56;87.82;100728.47;4901841;28;20171;-82
2021/05/09 03:28:40;;;;;;;9.68;5.03;;;7.90;99.90;;;6.54;87.55;100732.91;4901930;28;20109;-83
2021/05/09 03:31:03;;;;;;;8.95;5.60;;;8.00;99.90;;;6.60;88.26;100716.16;4899477;28;20076;-83
2021/05/09 03:33:26;;;;;;;10.18;5.68;;;8.00;99.90;;;6.67;87.53;100709.81;4899547;28;20103;-82
2021/05/09 03:35:50;;;;;;;8.23;5.15;;;;;;;6.66;86.43;100712.50;4901594;28;20095;-82
2021/05/09 03:38:13;;;;;;;12.52;5.55;;;8.10;99.90;;;6.67;85.53;100712.44;4903723;28;20079;-82
2021/05/09 03:40:37;;;;;;;8.85;5.32;;;;;;;6.70;85.80;100714.13;4899134;28;20111;-81
2021/05/09 03:43:00;;;;;;;7.97;5.15;;;8.10;99.90;;;6.73;85.81;100699.16;4901057;28;20089;-83
2021/05/09 03:45:23;;;;;;;9.98;5.45;;;8.10;99.90;;;6.73;86.28;100708.78;4899544;28;20512;-81
2021/05/09 03:47:46;;;;;;;13.63;5.40;;;8.10;99.90;;;6.77;85.77;100705.19;4898417;28;20487;-83
2021/05/09 03:50:10;;;;;;;11.07;5.25;;;8.20;99.90;;;6.84;84.37;100698.84;4902765;28;20096;-82
2021/05/09 03:52:34;;;;;;;12.27;5.57;;;8.20;99.90;;;6.87;84.22;100703.13;4901460;28;20535;-82
2021/05/09 03:54:57;;;;;;;8.55;5.50;;;8.30;99.90;;;6.94;83.27;100696.81;4900242;28;20084;-83
2021/05/09 03:57:20;;;;;;;7.78;4.85;;;8.40;99.90;;;7.12;82.77;100695.34;4901704;28;20092;-83
2021/05/09 03:59:44;;;;;;;7.07;4.80;;;8.50;99.90;;;7.14;82.08;100698.75;4902748;28;20089;-81
2021/05/09 04:02:07;;;;;;;8.05;5.55;;;8.50;99.90;;;7.14;82.15;100697.00;4899946;28;20089;-80
2021/05/09 04:04:30;;;;;;;11.98;5.93;;;8.50;99.90;;;7.19;81.75;100692.47;4898465;28;20091;-80
2021/05/09 04:06:53;;;;;;;7.68;4.47;;;8.60;99.90;;;7.26;81.05;100687.88;4899560;28;20085;-82
2021/05/09 04:09:16;;;;;;;9.07;5.00;;;8.60;99.90;;;7.29;80.18;100689.53;4905348;28;20486;-82
2021/05/09 04:11:39;;;;;;;9.52;4.65;;;8.70;99.90;;;7.32;80.83;100682.44;4902143;28;20123;-80
2021/05/09 04:14:02;;;;;;;6.60;4.57;;;8.70;99.90;;;7.36;80.64;100678.81;4901345;28;20092;-80
2021/05/09 04:16:25;;;;;;;8.70;4.50;;;;;;;7.40;80.12;100672.53;4900296;28;20085;-82
2021/05/09 04:18:48;;;;;;;10.52;4.78;;;;;;;7.40;79.94;100675.16;4901914;28;20130;-82
2021/05/09 04:21:11;;;;;;;9.25;5.30;;;8.70;99.90;;;7.46;80.86;100692.44;4902606;28;20153;-83
2021/05/09 04:23:34;;;;;;;11.55;5.13;;;8.80;99.90;;;7.44;80.71;100682.94;4904666;28;20089;-82
2021/05/09 04:25:59;;;;;;;7.78;4.68;;;8.80;99.90;;;7.51;81.23;100679.19;4903007;28;20095;-81
2021/05/09 04:28:22;;;;;;;16.87;5.23;;;8.80;99.90;;;7.55;80.60;100678.16;4902080;28;20478;-82
2021/05/09 04:30:45;;;;;;;9.02;4.85;;;8.90;99.90;;;7.60;80.54;100671.00;4902144;28;20079;-81
2021/05/09 04:33:08;;;;;;;8.73;4.93;;;8.90;99.90;;;7.64;80.29;100679.63;4902740;28;20083;-81
2021/05/09 04:35:32;;;;;;;8.73;4.97;;;9.00;99.90;;;7.66;80.16;100675.19;4904454;28;20087;-82
2021/05/09 04:37:55;;;;;;;13.55;4.95;;;9.00;99.90;;;7.67;79.65;100672.50;4906521;28;20531;-81
2021/05/09 04:40:18;;;;;;;7.80;4.60;;;;;;;7.77;79.85;100668.63;4904258;28;20094;-82
2021/05/09 04:42:42;;;;;;;10.63;4.43;;;;;;;7.84;79.57;100677.16;4900870;28;20332;-80
2021/05/09 04:45:08;;;;;;;10.65;5.05;;;9.10;99.90;;;7.88;79.12;100670.88;4904836;28;20085;-80
2021/05/09 04:47:32;;;;;;;;;;;9.20;99.90;;;7.97;80.13;100673.19;4906099;28;20086;-83
2021/05/09 04:49:54;;;;;;;7.20;4.38;;;9.20;99.90;;;7.97;79.68;100681.03;4903287;28;19957;-80
2021/05/09 04:52:17;;;;;;;9.63;4.55;;;9.30;99.90;;;8.01;80.77;100666.91;4905641;28;20093;-80
2021/05/09 04:54:40;;;;;;;8.48;4.50;;;9.20;99.90;;;8.02;80.38;100670.38;4900680;28;20096;-80
2021/05/09 04:57:03;;;;;;;9.15;5.00;;;9.30;99.90;;;8.09;80.37;100668.38;4903757;28;20096;-82
2021/05/09 04:59:27;;;;;;;7.60;4.78;;;;;;;8.10;79.57;100667.44;4910101;28;20081;-82
2021/05/09 05:01:50;;;;;;;12.10;4.90;;;9.40;99.90;;;8.12;80.21;100669.13;4906837;28;20203;-79
2021/05/09 05:04:13;;;;;;;7.10;4.32;;;9.40;99.90;;;8.16;79.92;100667.22;4907885;28;20088;-81
2021/05/09 05:06:36;;;;;;;9.48;4.85;;;9.40;99.90;;;8.18;80.40;100668.88;4908284;28;20090;-82
2021/05/09 05:08:58;;;;;;;6.10;4.55;;;9.50;99.90;;;8.30;80.26;100670.19;4908064;28;20131;-80
2021/05/09 05:11:21;;;;;;;11.05;5.03;;;9.50;99.90;;;8.34;79.62;100674.41;4907545;28;20091;-82
2021/05/09 05:13:44;;;;;;;5.47;3.92;;;9.60;99.90;;;8.42;79.94;100676.75;4908210;28;20481;-79
2021/05/09 05:16:08;;;;;;;6.53;3.80;;;9.70;99.90;;;8.49;79.16;100678.25;4907413;28;20162;-81
2021/05/09 05:18:32;;;;;;;10.18;4.60;;;9.80;99.90;;;8.64;79.05;100671.56;4905597;28;20084;-80
2021/05/09 05:21:00;;;;;;;7.07;4.50;;;9.90;99.90;;;8.77;77.44;100664.91;4908205;28;20088;-80
2021/05/09 05:23:23;;;;;;;9.65;4.20;;;10.00;99.90;;;8.82;76.76;100660.31;4904102;28;20532;-83
2021/05/09 05:25:46;;;;;;;6.05;4.32;;;10.00;99.90;;;8.82;76.66;100659.47;4900801;28;20089;-81
2021/05/09 05:28:09;;;;;;;5.78;3.70;;;10.00;99.90;;;8.79;77.43;100660.44;4902417;28;20110;-81
2021/05/09 05:30:32;;;;;;;8.18;4.53;;;10.10;99.90;;;8.87;76.68;100656.66;4904371;28;20136;-82
2021/05/09 05:32:57;;;;;;;7.03;4.50;;;10.10;99.90;;;8.92;77.38;100665.19;4903904;28;24593;-81
2021/05/09 05:35:20;;;;;;;5.82;3.88;;;10.20;99.90;;;9.07;76.91;100668.94;4902466;28;20088;-82
2021/05/09 05:37:43;;;;;;;8.27;3.85;;;10.30;99.90;;;9.11;74.94;100668.75;4905329;28;20565;-82
2021/05/09 05:40:09;;;;;;;8.73;4.07;;;10.30;99.90;;;9.15;75.10;100666.88;4903609;28;20146;-83
2021/05/09 05:42:31;;;;;;;;;;;10.30;99.90;;;9.17;75.73;100665.03;4905289;28;20075;-82
2021/05/09 05:44:54;;;;;;;6.68;4.22;;;10.40;99.90;;;9.26;75.67;100664.63;4898275;28;19962;-82
2021/05/09 05:47:17;;;;;;;5.93;4.10;;;;;;;9.40;74.92;100659.66;4903668;28;20081;-82
2021/05/09 05:49:41;;;;;;;5.65;3.70;;;10.70;99.90;;;9.55;73.94;100660.78;4906221;28;20078;-82
2021/05/09 05:52:04;;;;;;;7.75;3.42;;;10.70;99.90;;;9.74;73.59;100663.47;4895708;28;20084;-82
2021/05/09 05:54:28;;;;;;;5.97;3.58;;;10.90;99.90;;;9.95;69.46;100659.00;4901387;28;20084;-82
2021/05/09 05:56:51;;;;;;;5.22;3.38;;;11.30;99.90;;;10.63;69.45;100658.56;4901179;28;20100;-80
2021/05/09 05:59:13;;;;;;;4.63;3.05;;;12.00;99.90;;;11.42;65.90;100661.63;4904522;28;20137;-82
2021/05/09 06:01:36;;;;;;;5.10;3.20;;;12.50;99.90;;;11.98;63.38;100669.34;4903567;28;20101;-82
2021/05/09 06:03:59;;;;;;;5.53;3.17;;;13.30;99.90;;;13.29;58.84;100661.13;4894441;28;20078;-83
2021/05/09 06:06:23;;;;;;;4.38;2.70;;;;;;;15.18;52.67;100656.38;4901826;28;20045;-82
2021/05/09 06:08:46;;;;;;;8.55;3.47;;;15.80;99.90;;;16.18;47.36;100653.03;4904783;28;20056;-81
2021/05/09 06:11:09;;;;;;;5.75;3.05;;;16.70;99.90;;;17.27;46.17;100652.19;4895873;28;20044;-82
2021/05/09 06:13:31;;;;;;;6.47;2.65;;;17.30;99.90;;;18.03;43.13;100639.22;4906970;28;20056;-83
2021/05/09 06:15:54;;;;;;;4.68;2.42;;;18.00;99.90;;;18.43;43.17;100644.03;4907636;28;20047;-82
2021/05/09 06:18:17;;;;;;;5.88;2.88;;;16.70;99.90;;;16.44;46.29;100663.59;4907329;28;20048;-83
2021/05/09 06:20:40;;;;;;;3.75;2.35;;;16.20;99.90;;;16.15;48.41;100652.41;4898296;28;20053;-82
2021/05/09 06:23:05;;;;;;;5.15;2.65;;;17.00;99.90;;;17.56;45.73;100651.78;4906953;28;20075;-83
2021/05/09 06:25:28;;;;;;;3.42;2.30;;;18.20;99.90;;;18.78;42.36;100648.34;4905278;28;20038;-81
2021/05/09 06:27:51;;;;;;;3.75;2.15;;;19.50;99.90;;;20.32;38.92;100653.94;4905155;28;20131;-82
2021/05/09 06:30:16;;;;;;;3.30;1.95;;;21.00;99.90;;;21.64;36.75;100641.88;4905222;28;20224;-83
2021/05/09 06:32:38;;;;;;;4.38;2.25;;;21.90;99.70;;;22.38;35.04;100645.59;4906110;28;20052;-83
2021/05/09 06:35:01;;;;;;;3.15;1.90;;;22.00;96.60;;;23.02;33.54;100638.34;4906489;28;20530;-82
2021/05/09 06:37:25;;;;;;;3.08;1.90;;;21.60;97.80;;;22.49;34.89;100648.06;4905880;28;20037;-83
2021/05/09 06:39:51;;;;;;;5.32;2.13;;;21.00;97.10;;;21.65;36.21;100652.47;4907514;28;20135;-81
2021/05/09 06:42:14;;;;;;;;;;;20.50;98.00;;;21.06;37.80;100658.88;4905440;28;20047;-84
2021/05/09 06:44:40;;;;;;;4.10;2.17;;;19.90;98.80;;;20.23;38.64;100652.94;4907181;28;19932;-83
2021/05/09 06:47:05;;;;;;;3.50;2.05;;;19.80;98.80;;;21.08;37.50;100656.91;4905900;28;20894;-82
2021/05/09 06:49:28;;;;;;;5.30;1.85;;;20.30;97.90;;;21.45;36.35;100654.34;4897901;28;20056;-84
2021/05/09 06:51:51;;;;;;;3.58;2.20;;;19.60;98.80;;;20.08;38.98;100657.78;4914261;28;20040;-82
2021/05/09 06:54:14;;;;;;;1.73;1.50;;;18.80;99.00;;;18.53;41.14;100653.00;4900832;28;20041;-84
2021/05/09 06:56:38;;;;;;;6.47;2.03;;;17.90;99.90;;;17.79;42.24;100653.47;4900906;28;20036;-83
2021/05/09 06:59:01;;;;;;;2.97;1.92;;;17.80;99.90;;;17.67;44.75;100651.78;4904229;28;20059;-82
2021/05/09 07:01:24;;;;;;;3.00;2.30;;;17.20;99.90;;;17.04;48.48;100658.38;4906412;28;20037;-81
2021/05/09 07:03:46;;;;;;;3.10;1.85;;;17.00;99.90;;;16.50;47.96;100657.84;4906379;28;21149;-81
2021/05/09 07:06:09;;;;;;;3.60;2.00;;;16.50;99.90;;;16.45;48.11;100654.66;4905415;28;20051;-81
2021/05/09 07:08:32;;;;;;;4.43;1.90;;;17.10;99.90;;;17.59;45.22;100656.84;4906616;28;20052;-82
2021/05/09 07:10:55;;;;;;;4.63;1.80;;;17.90;99.90;;;18.71;44.88;100647.97;4903622;28;20045;-80
2021/05/09 07:13:19;;;;;;;2.83;2.00;;;18.70;99.90;;;19.34;43.29;100652.59;4900880;28;20384;-81
2021/05/09 07:15:43;;;;;;;2.67;1.65;;;18.40;99.90;;;18.54;44.56;100653.84;4904104;28;20052;-80
2021/05/09 07:18:10;;;;;;;3.45;1.88;;;17.50;99.90;;;17.31;46.66;100653.63;4906004;28;20433;-82
2021/05/09 07:20:35;;;;;;;2.83;1.90;;;17.10;99.90;;;16.84;47.25;100652.72;4894589;28;20049;-84
2021/05/09 07:22:59;;;;;;;2.88;1.63;;;16.70;99.90;;;16.71;48.59;100659.88;4906746;28;20044;-82
2021/05/09 07:25:22;;;;;;;3.97;1.83;;;17.10;99.90;;;17.49;46.63;100642.56;4906261;28;20052;-83
2021/05/09 07:27:45;;;;;;;3.67;1.90;;;17.90;99.90;;;18.45;43.17;100645.59;4905826;28;20090;-82
2021/05/09 07:30:13;;;;;;;2.90;1.45;;;18.90;99.90;;;20.22;42.19;100648.56;4908150;28;20048;-82
2021/05/09 07:32:36;;;;;;;2.60;1.58;;;19.90;98.90;;;21.08;36.36;100646.19;4904309;28;20476;-84
2021/05/09 07:34:58;;;;;;;3.45;2.00;;;20.10;99.80;;;22.00;35.62;100639.38;4906502;28;20036;-83
2021/05/09 07:37:21;;;;;;;3.05;1.75;;;18.90;98.10;;;21.16;36.48;100642.78;4904539;28;20045;-80
2021/05/09 07:39:44;;;;;;;2.58;1.70;;;19.60;99.40;;;20.32;38.28;100648.59;4904281;28;20060;-81
2021/05/09 07:42:07;;;;;;;2.30;1.80;;;;;;;21.83;37.40;100632.94;4901580;28;20041;-81
2021/05/09 07:44:30;;;;;;;5.75;1.95;;;;;;;22.75;34.50;100628.53;4902896;28;20048;-81
2021/05/09 07:46:54;;;;;;;2.50;1.60;;;21.70;98.40;;;23.72;32.90;100635.69;4900960;28;20419;-79
2021/05/09 07:49:17;;;;;;;3.95;1.60;;;22.60;97.00;;;24.56;32.13;100640.28;4897014;28;20122;-80
2021/05/09 07:51:40;;;;;;;3.47;1.73;;;22.90;95.10;;;24.38;31.70;100636.00;4901319;28;20055;-83
2021/05/09 07:54:04;;;;;;;5.72;1.70;;;22.30;95.40;;;24.06;32.80;100637.53;4899436;28;20431;-81
2021/05/09 07:56:26;;;;;;;2.95;1.90;;;22.30;96.50;;;24.10;32.32;100631.72;4898279;28;20040;-84
2021/05/09 07:58:49;;;;;;;4.65;1.50;;;21.80;95.90;;;24.82;31.34;100627.72;4903287;28;20052;-84
2021/05/09 08:01:12;;;;;;;2.97;1.35;;;22.40;95.50;;;24.70;32.86;100625.31;4900071;28;20491;-84
2021/05/09 08:03:37;;;;;;;3.17;1.50;;;21.70;97.20;;;23.39;34.20;100638.16;4900495;28;20051;-82
2021/05/09 08:06:24;;;;;;;3.13;1.70;;;20.70;98.30;;;22.11;36.98;100633.81;4882156;28;20052;-81
2021/05/09 08:09:36;;;;;;;1.98;1.52;;;21.20;99.00;;;22.75;36.42;100625.84;4830452;28;20056;-82
2021/05/09 08:12:36;;;;;;;2.40;1.52;;;21.50;97.80;;;23.27;34.73;100629.50;4823235;28;20056;-83
2021/05/09 08:16:04;;;;;;;1.98;1.27;;;21.00;98.70;;;22.96;35.65;100639.81;4813748;28;20061;-80
2021/05/09 08:22:18;;;;;;;3.25;1.50;;;19.40;99.90;;;19.70;43.62;100645.97;4843668;28;20049;-83
2021/05/09 08:24:41;;;;;;;3.35;1.23;;;19.10;99.90;;;19.83;44.39;100645.75;4898888;28;20060;-83
2021/05/09 08:27:07;;;;;;;2.65;1.50;;;19.50;99.90;;;20.56;43.49;100641.06;4900044;28;20439;-81
2021/05/09 08:29:30;;;;;;;2.35;1.42;;;20.10;99.90;;;20.76;42.92;100635.78;4899252;28;20052;-84
2021/05/09 08:31:56;;;;;;;3.17;1.88;;;20.60;99.90;;;20.97;39.91;100640.97;4899865;28;20111;-83
2021/05/09 08:34:23;;;;;;;3.67;1.50;;;20.70;99.90;;;21.58;40.06;100634.47;4897886;28;20189;-83
2021/05/09 08:36:47;;;;;;;2.17;1.48;;;;;;;22.37;39.01;100627.78;4896981;28;20040;-84
2021/05/09 08:39:13;;;;;;;2.33;1.65;;;;;;;22.17;39.54;100627.88;4903489;28;20062;-80
2021/05/09 08:41:40;;;;;;;3.25;1.65;;;21.50;99.30;;;22.44;39.18;100623.50;4900732;28;20044;-82
2021/05/09 08:44:03;;;;;;;4.43;1.70;;;22.00;99.00;;;22.81;38.90;100628.75;4900938;28;20057;-79
2021/05/09 08:46:27;;;;;;;3.67;1.50;;;23.00;98.90;;;24.03;36.87;100633.34;4890362;28;20087;-85
2021/05/09 08:48:53;;;;;;;5.75;1.48;;;23.20;98.60;;;23.95;36.31;100626.09;4898613;28;20127;-84
2021/05/09 08:51:18;;;;;;;2.25;1.30;;;23.40;98.80;;;24.52;37.96;100638.94;4893274;28;20117;-82
2021/05/09 08:53:43;;;;;;;2.35;1.38;;;23.80;97.10;;;24.87;35.52;100623.50;4888043;28;20717;-83
2021/05/09 08:56:08;;;;;;;2.40;1.30;;;23.60;97.50;;;24.23;37.58;100623.16;4894627;28;20556;-84
2021/05/09 08:58:38;;;;;;;3.28;1.60;;;23.90;98.60;;;24.40;37.38;100620.53;4889658;28;20048;-83
2021/05/09 09:01:03;;;;;;;3.47;1.52;;;23.60;97.50;;;24.08;38.35;100624.78;4902481;28;20063;-84
2021/05/09 09:03:27;;;;;;;2.67;1.63;;;22.90;98.00;;;22.94;38.86;100620.31;4861042;28;20050;-81
2021/05/09 09:05:52;;;;;;;4.97;1.50;;;22.10;99.30;;;22.47;40.87;100623.22;4900788;28;20047;-80
2021/05/09 09:08:18;;;;;;;;;;;22.70;99.00;;;22.70;40.60;100615.56;4891185;28;20094;-82
2021/05/09 09:10:45;;;;;;;2.15;1.17;;;22.90;98.70;;;22.75;40.90;100617.78;4897049;28;19932;-81
2021/05/09 09:13:25;;;;;;;5.07;1.20;;;23.10;99.20;;;22.99;40.43;100609.09;4879691;28;20162;-83
2021/05/09 09:15:52;;;;;;;1.23;1.10;;;22.90;98.30;;;22.90;39.84;100618.94;4891604;28;20048;-83
2021/05/09 09:18:32;;;;;;;3.85;1.38;;;22.90;99.90;;;22.85;42.08;100607.81;4895739;28;20484;-81
2021/05/09 09:20:59;;;;;;;2.20;1.20;;;21.90;99.90;;;22.00;43.36;100615.25;4893004;28;20036;-83
2021/05/09 09:23:49;;;;;;;8.73;1.42;;;21.50;99.90;;;21.35;44.19;100616.00;4891284;28;20049;-82
2021/05/09 09:26:41;;;;;;;2.97;1.40;;;21.10;99.90;;;20.93;43.49;100627.03;4885494;28;21953;-82
2021/05/09 09:29:24;;;;;;;2.55;1.08;;;21.20;99.90;;;21.21;44.33;100622.66;4902585;28;20045;-82
2021/05/09 09:31:56;;;;;;;2.22;1.10;;;21.30;99.90;;;21.39;46.04;100616.56;4883215;28;20047;-80
2021/05/09 09:34:34;;;;;;;3.67;1.10;;;21.60;99.90;;;21.65;43.75;100611.44;4846377;28;20064;-80
2021/05/09 11:23:27;;;;;;;2.42;1.17;;;22.70;99.10;;;22.42;41.12;100518.19;4863952;27;20860;-80
2021/05/09 11:26:05;;;;;;;;;;;22.80;99.90;;;22.50;42.10;100518.25;4850265;27;21915;-79
2021/05/09 11:29:07;;;;;;;5.97;1.20;;;23.20;99.60;;;23.07;41.60;100518.75;4839349;27;20306;-78
2021/05/09 11:31:41;;;;;;;3.30;0.95;;;23.20;99.60;;;22.83;41.96;100515.84;4841651;27;20130;-79
2021/05/09 11:34:05;;;;;;;4.57;1.20;;;22.90;99.90;;;22.73;43.07;100518.63;4888805;27;20772;-80
2021/05/09 11:36:31;;;;;;;2.40;1.10;;;23.20;99.30;;;22.92;41.78;100514.94;4932522;27;20040;-80
2021/05/09 11:39:10;;;;;;;2.10;0.90;;;23.30;99.40;;;23.12;41.05;100516.41;4928661;27;20502;-81
2021/05/09 11:41:52;;;;;;;1.90;0.82;;;22.70;99.00;;;22.22;42.81;100512.09;4929596;27;20048;-82
2021/05/09 11:44:15;;;;;;;5.20;1.63;;;22.60;99.90;;;22.23;43.47;100511.97;4927239;27;20154;-80
2021/05/09 11:46:38;;;;;;;2.03;0.93;;;23.10;99.70;;;22.70;40.67;100494.81;4925149;27;20048;-81
2021/05/09 11:49:18;;;;;;;3.08;1.00;;;23.00;99.20;;;22.54;41.60;100519.63;4930552;27;20475;-79
2021/05/09 11:51:52;;;;;;;1.85;0.90;;;22.60;99.90;;;22.19;42.94;100515.09;4930105;27;20043;-78
2021/05/09 11:54:16;;;;;;;1.75;0.88;;;22.70;99.90;;;22.44;43.95;100502.78;4929500;27;20105;-80
2021/05/09 11:56:53;;;;;;;2.13;0.98;;;22.80;99.40;;;22.29;43.71;100510.53;4930604;27;20048;-81
2021/05/09 11:59:29;;;;;;;1.10;0.80;;;22.50;99.80;;;22.00;42.60;100498.13;4928734;27;20445;-80
2021/05/09 12:01:52;;;;;;;2.58;1.10;;;22.30;99.00;;;21.88;43.36;100508.22;4903120;27;20055;-83
2021/05/09 12:04:15;;;;;;;3.30;0.65;;;22.40;99.10;;;21.81;42.22;100514.34;4930273;27;20070;-81
2021/05/09 12:06:40;;;;;;;7.30;1.00;;;22.40;99.10;;;21.97;42.01;100508.34;4928605;27;20098;-81